Airfield :
LOGIN :

Register | Disclaimer

   EN    FR    IT 

 










Legend :    VFR   Marginal VFR   IFR   Intensive IFR   Very Intensive IFR
Visi :
Ceiling :
>= 8 km
>= 3000ft
5 to 8 km
1000 to 3000 ft
1500m to 5 km
500 to 1000 ft
800 to 1500m
200 to 500 ft
< 800m
< 200 ft
Symbols :   Thunderstorms  Fog  Heavy snow  Heavy precipitations  Wind > 20 kt
SIGMETs :     Misc.  Thunderstorms  Icing  Turbulence  Mountain Waves  Volcanic Ashes







- Airport Elevation : 465 ft
- IATA code : LEJ


EDDP - Leipzig Halle

CURRENT METAR :
  • 100350Z 27015KT 9999 -RA FEW013 BKN023 04/02 Q1009 TEMPO 27020G30KT

EXPIRED METARs :
  • 100320Z 28016KT 9999 -SHRA SCT015 BKN027TCU 05/02 Q1009 TEMPO 28020G30KT
  • 100250Z 27016G27KT 9999 BKN025 BKN035 05/01 Q1009 NOSIG
  • 100220Z 27016KT 9999 -SHRA BKN027TCU 05/02 Q1008 TEMPO 27020G30KT
  • 100150Z 27017KT 9999 -SHRA SCT028TCU BKN038 06/01 Q1008 TEMPO 27020G30KT
  • 100120Z 27015KT 9999 BKN027 05/01 Q1008 TEMPO 27020G30KT

TAF TAF EDDP
Valid from the 10 at 00:00 until the 11 at 00:00 UTC


092300Z 1000/1024 28015G30KT 9999 BKN030
PROB30
TEMPO 1017/1024 28020G35KT SHRASN BKN020CB
No reported NOTAMs for that airfield.



MET'MAP, your aeronautical weather chart ! - Copyright ORBIFLY December 2007 - Disclaimer

ORBIFLY MET'MAP TEAM :

Programming & Development : Alexandra Zaïnal
Concept & Development : Baudouin d'Aumeries
Co-Development & Prog : Marc-Olivier Méhu
Technical & hardware support : Manuel Goepfert

Contact : metmap@orbifly.com




SOURCES & CREDITS :

   NOAA